createdAt,value
2023-03-03T00:00:12.538Z,4.32
2023-03-03T00:02:41.421Z,4.28
2023-03-03T00:05:10.400Z,5.22
2023-03-03T00:07:38.207Z,5.63
2023-03-03T00:10:09.773Z,5.63
2023-03-03T00:12:46.973Z,5.55
2023-03-03T00:15:27.146Z,5.45
2023-03-03T00:17:55.240Z,5.35
2023-03-03T00:20:23.524Z,5.30
2023-03-03T00:22:51.449Z,5.82
2023-03-03T00:25:29.944Z,4.63
2023-03-03T00:28:16.297Z,4.95
2023-03-03T00:30:43.855Z,4.95
2023-03-03T00:33:23.244Z,4.75
2023-03-03T00:35:50.605Z,5.35
2023-03-03T00:38:20.079Z,4.72
2023-03-03T00:40:48.644Z,5.05
2023-03-03T00:43:33.237Z,4.53
2023-03-03T00:46:00.778Z,5.18
2023-03-03T00:48:31.491Z,6.70
2023-03-03T00:51:08.749Z,4.85
2023-03-03T00:53:36.253Z,4.72
2023-03-03T00:56:03.656Z,5.28
2023-03-03T00:58:31.198Z,3.85
2023-03-03T01:00:58.981Z,4.28
2023-03-03T01:03:27.520Z,4.55
2023-03-03T01:05:55.395Z,5.00
2023-03-03T01:08:23.311Z,4.75
2023-03-03T01:11:09.695Z,4.78
2023-03-03T01:13:38.257Z,4.60
2023-03-03T01:16:06.380Z,4.60
2023-03-03T01:18:35.043Z,3.75
2023-03-03T01:21:02.389Z,4.00
2023-03-03T01:23:30.244Z,3.55
2023-03-03T01:25:58.044Z,4.50
2023-03-03T01:28:25.633Z,4.63
2023-03-03T01:30:53.462Z,4.32
2023-03-03T01:33:21.095Z,4.22
2023-03-03T01:35:49.103Z,3.70
2023-03-03T01:38:16.601Z,3.92
2023-03-03T01:40:51.987Z,3.97
2023-03-03T01:43:19.543Z,4.50
2023-03-03T01:45:49.639Z,4.47
2023-03-03T01:48:28.495Z,4.47
2023-03-03T01:51:01.100Z,4.47
2023-03-03T01:53:38.841Z,4.35
2023-03-03T01:56:08.740Z,4.25
2023-03-03T01:58:40.836Z,4.18
2023-03-03T02:01:13.696Z,4.00
2023-03-03T02:03:43.391Z,4.78
2023-03-03T02:06:15.573Z,5.22
2023-03-03T02:08:49.394Z,6.38
2023-03-03T02:11:17.459Z,4.22
2023-03-03T02:13:44.644Z,4.22
2023-03-03T02:16:12.118Z,4.43
2023-03-03T02:18:39.793Z,5.00
2023-03-03T02:21:12.459Z,4.32
2023-03-03T02:24:02.839Z,3.50
2023-03-03T02:26:34.263Z,5.45
2023-03-03T02:31:31.526Z,6.05
2023-03-03T02:33:59.658Z,4.30
2023-03-03T02:36:33.097Z,4.65
2023-03-03T02:39:26.519Z,4.78
2023-03-03T02:42:29.775Z,4.68
2023-03-03T02:44:57.105Z,4.35
2023-03-03T02:47:24.705Z,4.53
2023-03-03T02:49:52.438Z,3.70
2023-03-03T02:52:20.142Z,4.60
2023-03-03T02:54:48.105Z,4.88
2023-03-03T02:57:15.850Z,5.20
2023-03-03T02:59:43.293Z,5.00
2023-03-03T03:02:10.984Z,4.30
2023-03-03T03:04:38.648Z,4.82
2023-03-03T03:07:06.185Z,5.32
2023-03-03T03:09:33.458Z,4.28
2023-03-03T03:12:02.658Z,4.72
2023-03-03T03:14:30.290Z,4.55
2023-03-03T03:16:57.691Z,4.95
2023-03-03T03:19:25.189Z,5.03
2023-03-03T03:21:52.834Z,5.03
2023-03-03T03:24:20.372Z,5.63
2023-03-03T03:26:47.786Z,4.35
2023-03-03T03:29:15.281Z,4.22
2023-03-03T03:31:43.859Z,5.32
2023-03-03T03:34:11.371Z,5.03
2023-03-03T03:36:39.997Z,4.05
2023-03-03T03:39:07.414Z,4.63
2023-03-03T03:41:34.930Z,4.82
2023-03-03T03:44:02.524Z,5.07
2023-03-03T03:46:30.137Z,4.97
2023-03-03T03:48:57.548Z,6.03
2023-03-03T03:51:25.032Z,4.50
2023-03-03T03:53:52.528Z,4.47
2023-03-03T03:56:19.837Z,4.10
2023-03-03T03:58:47.291Z,4.10
2023-03-03T04:01:14.945Z,4.07
2023-03-03T04:03:42.652Z,4.40
2023-03-03T04:06:10.092Z,4.30
2023-03-03T04:08:37.496Z,5.97
2023-03-03T04:11:05.247Z,5.07
2023-03-03T04:13:35.283Z,4.80
2023-03-03T04:16:03.139Z,3.65
2023-03-03T04:18:30.738Z,4.25
2023-03-03T04:20:58.286Z,4.70
2023-03-03T04:23:25.643Z,4.00
2023-03-03T04:25:53.324Z,4.65
2023-03-03T04:28:22.022Z,4.18
2023-03-03T04:30:49.704Z,4.53
2023-03-03T04:33:17.149Z,4.20
2023-03-03T04:35:44.486Z,3.90
2023-03-03T04:38:12.146Z,4.65
2023-03-03T04:40:41.895Z,5.18
2023-03-03T04:43:10.960Z,3.95
2023-03-03T04:45:38.412Z,3.63
2023-03-03T04:48:06.446Z,4.28
2023-03-03T04:50:34.954Z,5.65
2023-03-03T04:53:02.791Z,4.15
2023-03-03T04:55:30.309Z,4.45
2023-03-03T04:57:58.148Z,4.38
2023-03-03T05:00:25.697Z,5.55
2023-03-03T05:02:53.083Z,4.28
2023-03-03T05:05:20.425Z,3.60
2023-03-03T05:07:47.935Z,3.45
2023-03-03T05:10:15.548Z,4.25
2023-03-03T05:12:44.230Z,4.07
2023-03-03T05:15:11.892Z,3.72
2023-03-03T05:17:39.235Z,3.80
2023-03-03T05:20:08.524Z,4.65
2023-03-03T05:22:36.129Z,5.45
2023-03-03T05:25:03.985Z,4.35
2023-03-03T05:27:31.503Z,4.47
2023-03-03T05:29:59.231Z,3.47
2023-03-03T05:32:26.756Z,4.40
2023-03-03T05:34:54.118Z,3.58
2023-03-03T05:37:21.417Z,3.92
2023-03-03T05:39:48.928Z,3.10
2023-03-03T05:42:16.527Z,3.50
2023-03-03T05:44:43.879Z,4.20
2023-03-03T05:47:11.230Z,4.20
2023-03-03T05:49:38.943Z,4.75
2023-03-03T05:52:06.612Z,3.60
2023-03-03T05:54:34.831Z,3.80
2023-03-03T05:57:02.446Z,4.03
2023-03-03T05:59:29.932Z,3.80
2023-03-03T06:01:57.572Z,4.30
2023-03-03T06:04:24.923Z,4.13
2023-03-03T06:06:52.288Z,3.83
2023-03-03T06:09:20.557Z,3.80
2023-03-03T06:11:48.120Z,4.90
2023-03-03T06:14:15.518Z,3.58
2023-03-03T06:16:43.126Z,3.92
2023-03-03T06:19:14.385Z,3.88
2023-03-03T06:21:43.479Z,3.42
2023-03-03T06:24:10.978Z,4.35
2023-03-03T06:26:38.285Z,3.35
2023-03-03T06:29:05.727Z,3.58
2023-03-03T06:31:33.314Z,3.95
2023-03-03T06:34:00.733Z,3.95
2023-03-03T06:36:28.177Z,3.72
2023-03-03T06:38:55.699Z,3.08
2023-03-03T06:41:23.070Z,3.20
2023-03-03T06:43:50.489Z,2.85
2023-03-03T06:46:18.285Z,3.17
2023-03-03T06:48:46.040Z,3.38
2023-03-03T06:51:31.728Z,3.33
2023-03-03T06:54:02.370Z,3.53
2023-03-03T06:56:31.982Z,3.90
2023-03-03T06:59:02.902Z,3.33
2023-03-03T07:01:36.289Z,2.97
2023-03-03T07:04:26.290Z,3.40
2023-03-03T07:06:53.782Z,2.50
2023-03-03T07:09:26.297Z,2.78
2023-03-03T07:12:02.249Z,3.17
2023-03-03T07:14:30.671Z,2.88
2023-03-03T07:17:01.857Z,3.17
2023-03-03T07:19:34.901Z,3.67
2023-03-03T07:22:14.408Z,3.53
2023-03-03T07:24:44.303Z,3.28
2023-03-03T07:27:24.841Z,2.90
2023-03-03T07:30:19.920Z,3.33
2023-03-03T07:32:48.541Z,2.75
2023-03-03T07:35:40.977Z,3.70
2023-03-03T07:38:38.587Z,2.85
2023-03-03T07:41:13.639Z,3.95
2023-03-03T07:43:50.711Z,3.67
2023-03-03T07:46:26.619Z,3.55
2023-03-03T07:48:55.844Z,3.53
2023-03-03T07:51:39.732Z,3.42
2023-03-03T07:54:15.232Z,3.17
2023-03-03T07:56:42.671Z,3.03
2023-03-03T07:59:24.493Z,3.50
2023-03-03T08:01:56.638Z,3.72
2023-03-03T08:04:41.545Z,5.30
2023-03-03T08:07:16.684Z,4.20
2023-03-03T08:09:57.496Z,3.70
2023-03-03T08:12:36.597Z,4.22
2023-03-03T08:15:23.388Z,4.10
2023-03-03T08:17:53.306Z,3.75
2023-03-03T08:20:39.389Z,3.45
2023-03-03T08:23:06.715Z,3.20
2023-03-03T08:25:34.264Z,3.72
2023-03-03T08:28:01.975Z,3.28
2023-03-03T08:30:29.375Z,3.60
2023-03-03T08:32:56.702Z,3.47
2023-03-03T08:35:24.401Z,4.07
2023-03-03T08:37:52.480Z,3.38
2023-03-03T08:40:19.974Z,3.20
2023-03-03T08:42:47.566Z,4.38
2023-03-03T08:45:15.025Z,3.25
2023-03-03T08:47:43.373Z,3.15
2023-03-03T08:50:11.430Z,3.80
2023-03-03T08:52:39.025Z,3.92
2023-03-03T08:55:08.497Z,3.88
2023-03-03T08:57:36.340Z,3.65
2023-03-03T09:00:04.171Z,4.22
2023-03-03T09:02:31.777Z,4.55
2023-03-03T09:04:59.423Z,4.05
2023-03-03T09:07:26.818Z,3.30
2023-03-03T09:09:54.153Z,4.72
2023-03-03T09:12:33.876Z,4.70
2023-03-03T09:15:28.678Z,4.05
2023-03-03T09:18:23.276Z,3.28
2023-03-03T09:20:54.580Z,2.80
2023-03-03T09:23:28.477Z,3.33
2023-03-03T09:25:57.408Z,3.50
2023-03-03T09:28:31.217Z,2.92
2023-03-03T09:31:04.858Z,2.40
2023-03-03T09:33:54.115Z,2.47
2023-03-03T09:36:29.824Z,3.42
2023-03-03T09:38:58.266Z,3.30
2023-03-03T09:41:56.423Z,2.80
2023-03-03T09:44:54.210Z,3.17
2023-03-03T09:47:30.715Z,2.88
2023-03-03T09:50:24.083Z,6.40
2023-03-03T09:53:19.565Z,3.20
2023-03-03T09:55:58.974Z,2.70
2023-03-03T09:58:45.905Z,2.97
2023-03-03T10:01:34.473Z,3.05
2023-03-03T10:04:24.004Z,2.22
2023-03-03T10:07:09.971Z,2.50
2023-03-03T10:09:43.415Z,2.50
2023-03-03T10:12:49.225Z,2.33
2023-03-03T10:15:26.223Z,2.60
2023-03-03T10:17:55.042Z,2.65
2023-03-03T10:20:52.768Z,2.42
2023-03-03T10:23:48.928Z,2.17
2023-03-03T10:26:45.193Z,2.42
2023-03-03T10:29:34.186Z,3.50
2023-03-03T10:32:14.588Z,2.88
2023-03-03T10:34:59.364Z,2.40
2023-03-03T10:37:52.170Z,2.90
2023-03-03T10:40:57.295Z,2.72
2023-03-03T10:43:48.470Z,2.10
2023-03-03T10:46:22.556Z,2.47
2023-03-03T10:49:04.975Z,2.13
2023-03-03T10:51:51.019Z,2.10
2023-03-03T10:54:51.023Z,2.20
2023-03-03T10:57:52.480Z,1.67
2023-03-03T11:01:07.070Z,2.00
2023-03-03T11:03:44.072Z,2.40
2023-03-03T11:06:16.226Z,1.92
2023-03-03T11:09:08.579Z,1.80
2023-03-03T11:11:57.573Z,2.28
2023-03-03T11:14:39.016Z,1.02
2023-03-03T11:17:34.495Z,1.60
2023-03-03T11:20:10.379Z,1.20
2023-03-03T11:23:04.169Z,1.10
2023-03-03T11:26:12.669Z,1.20
2023-03-03T11:29:13.604Z,1.20
2023-03-03T11:32:11.942Z,1.60
2023-03-03T11:34:56.215Z,1.33
2023-03-03T11:37:57.444Z,1.50
2023-03-03T11:40:36.108Z,1.20
2023-03-03T11:43:37.215Z,1.48
2023-03-03T11:46:15.641Z,1.95
2023-03-03T11:49:00.973Z,1.63
2023-03-03T11:51:32.615Z,1.27
2023-03-03T11:54:11.133Z,1.15
2023-03-03T11:56:43.928Z,1.95
2023-03-03T11:59:48.055Z,1.10
2023-03-03T12:02:15.643Z,1.30
2023-03-03T12:04:53.174Z,2.20
2023-03-03T12:07:53.622Z,5.53
2023-03-03T12:10:40.814Z,2.72
2023-03-03T12:13:19.569Z,4.30
2023-03-03T12:15:55.680Z,1.05
2023-03-03T12:18:40.698Z,1.30
2023-03-03T12:21:37.062Z,1.60
2023-03-03T12:24:27.394Z,1.33
2023-03-03T12:27:10.128Z,1.30
2023-03-03T12:29:46.824Z,1.35
2023-03-03T12:32:31.588Z,1.42
2023-03-03T12:35:11.220Z,1.30
2023-03-03T12:37:56.564Z,1.67
2023-03-03T12:40:35.483Z,2.08
2023-03-03T12:43:08.038Z,1.60
2023-03-03T12:45:48.067Z,1.33
2023-03-03T12:48:30.531Z,1.73
2023-03-03T12:51:11.874Z,2.00
2023-03-03T12:54:18.225Z,2.55
2023-03-03T12:56:49.467Z,2.90
2023-03-03T12:59:31.522Z,2.95
2023-03-03T13:02:20.973Z,2.63
2023-03-03T13:05:10.417Z,2.20
2023-03-03T13:08:14.865Z,2.63
2023-03-03T13:10:49.631Z,4.22
2023-03-03T13:13:34.357Z,3.05
2023-03-03T13:16:16.753Z,3.78
2023-03-03T13:18:50.275Z,2.47
2023-03-03T13:21:21.358Z,2.83
2023-03-03T13:23:54.717Z,2.30
2023-03-03T13:26:43.278Z,2.70
2023-03-03T13:29:23.308Z,2.33
2023-03-03T13:32:08.710Z,2.45
2023-03-03T13:34:56.109Z,1.80
2023-03-03T13:37:45.522Z,2.80
2023-03-03T13:40:33.974Z,1.88
2023-03-03T13:43:16.910Z,1.92
2023-03-03T13:46:07.905Z,1.73
2023-03-03T13:48:38.611Z,2.35
2023-03-03T13:51:24.658Z,1.83
2023-03-03T13:54:23.175Z,1.98
2023-03-03T13:56:50.861Z,2.83
2023-03-03T13:59:30.913Z,3.03
2023-03-03T14:01:59.077Z,2.28
2023-03-03T14:04:38.476Z,2.47
2023-03-03T14:07:14.622Z,2.28
2023-03-03T14:09:56.569Z,3.30
2023-03-03T14:12:58.661Z,4.75
2023-03-03T14:15:31.979Z,2.40
2023-03-03T14:18:32.869Z,3.00
2023-03-03T14:21:07.873Z,1.35
2023-03-03T14:23:55.791Z,1.63
2023-03-03T14:26:23.625Z,1.85
2023-03-03T14:28:53.072Z,1.67
2023-03-03T14:31:33.568Z,1.73
2023-03-03T14:34:14.862Z,1.80
2023-03-03T14:36:43.773Z,3.65
2023-03-03T14:39:37.913Z,2.83
2023-03-03T14:42:32.716Z,2.47
2023-03-03T14:45:04.671Z,1.75
2023-03-03T14:47:37.692Z,2.53
2023-03-03T14:50:30.686Z,1.15
2023-03-03T14:53:06.354Z,3.15
2023-03-03T14:55:38.823Z,1.90
2023-03-03T14:58:43.071Z,1.35
2023-03-03T15:01:17.368Z,2.78
2023-03-03T15:03:51.331Z,1.98
2023-03-03T15:06:36.480Z,3.33
2023-03-03T15:09:35.857Z,2.20
2023-03-03T15:12:22.615Z,4.13
2023-03-03T15:15:05.566Z,2.45
2023-03-03T15:17:42.058Z,1.70
2023-03-03T15:20:21.752Z,2.78
2023-03-03T15:23:01.768Z,3.78
2023-03-03T15:26:08.303Z,2.08
2023-03-03T15:28:38.872Z,3.45
2023-03-03T15:31:21.206Z,3.00
2023-03-03T15:33:57.905Z,2.65
2023-03-03T15:37:00.138Z,2.00
2023-03-03T15:40:03.063Z,1.25
2023-03-03T15:42:42.770Z,1.50
2023-03-03T15:45:27.115Z,1.40
2023-03-03T15:48:15.862Z,1.85
2023-03-03T15:51:14.004Z,1.63
2023-03-03T15:54:18.358Z,1.48
2023-03-03T15:56:58.502Z,1.73
2023-03-03T15:59:46.406Z,2.17
2023-03-03T16:02:58.830Z,2.47
2023-03-03T16:05:46.688Z,1.42
2023-03-03T16:08:26.102Z,1.80
2023-03-03T16:11:18.450Z,1.83
2023-03-03T16:13:51.810Z,1.70
2023-03-03T16:16:19.348Z,1.80
2023-03-03T16:19:14.465Z,3.67
2023-03-03T16:21:53.662Z,9.35
2023-03-03T16:25:00.363Z,2.97
2023-03-03T16:27:41.815Z,1.33
2023-03-03T16:30:32.594Z,1.38
2023-03-03T16:33:21.358Z,1.50
2023-03-03T16:36:18.044Z,1.35
2023-03-03T16:38:54.657Z,1.40
2023-03-03T16:42:08.163Z,1.50
2023-03-03T16:44:57.251Z,1.65
2023-03-03T16:47:50.353Z,1.63
2023-03-03T16:50:39.517Z,1.25
2023-03-03T16:53:25.258Z,2.00
2023-03-03T16:55:58.205Z,2.40
2023-03-03T16:58:50.886Z,1.60
2023-03-03T17:01:50.682Z,1.70
2023-03-03T17:04:30.194Z,1.67
2023-03-03T17:07:32.508Z,1.65
2023-03-03T17:10:14.464Z,1.83
2023-03-03T17:12:58.860Z,1.60
2023-03-03T17:15:35.564Z,1.65
2023-03-03T17:18:03.189Z,1.80
2023-03-03T17:20:46.249Z,1.83
2023-03-03T17:23:38.327Z,1.60
2023-03-03T17:26:46.754Z,1.75
2023-03-03T17:29:49.406Z,1.90
2023-03-03T17:32:50.756Z,1.92
2023-03-03T17:35:40.364Z,2.22
2023-03-03T17:38:42.344Z,1.98
2023-03-03T17:41:21.503Z,4.85
2023-03-03T17:44:35.955Z,6.97
2023-03-03T17:47:12.837Z,7.57
2023-03-03T17:50:22.283Z,3.15
2023-03-03T17:53:10.229Z,6.10
2023-03-03T17:56:17.076Z,2.72
2023-03-03T17:59:18.587Z,3.13
2023-03-03T18:02:04.784Z,2.28
2023-03-03T18:04:53.854Z,1.85
2023-03-03T18:07:46.458Z,2.30
2023-03-03T18:10:20.210Z,2.33
2023-03-03T18:13:07.053Z,3.53
2023-03-03T18:16:11.745Z,3.63
2023-03-03T18:19:01.561Z,3.47
2023-03-03T18:21:39.315Z,3.42
2023-03-03T18:24:25.549Z,2.40
2023-03-03T18:26:56.335Z,3.20
2023-03-03T18:29:28.613Z,2.72
2023-03-03T18:31:59.126Z,3.58
2023-03-03T18:34:40.811Z,3.00
2023-03-03T18:37:27.303Z,2.95
2023-03-03T18:40:03.467Z,2.97
2023-03-03T18:42:41.110Z,3.15
2023-03-03T18:45:11.702Z,3.10
2023-03-03T18:48:01.040Z,2.97
2023-03-03T18:50:40.055Z,2.45
2023-03-03T18:53:16.147Z,3.20
2023-03-03T18:55:49.752Z,2.97
2023-03-03T18:58:17.263Z,3.58
2023-03-03T19:00:53.151Z,3.83
2023-03-03T19:03:37.063Z,3.75
2023-03-03T19:06:10.359Z,3.38
2023-03-03T19:08:57.108Z,3.33
2023-03-03T19:11:49.203Z,3.40
2023-03-03T19:14:29.019Z,3.90
2023-03-03T19:17:16.384Z,3.67
2023-03-03T19:20:18.510Z,3.10
2023-03-03T19:22:52.453Z,3.20
2023-03-03T19:25:26.991Z,4.60
2023-03-03T19:28:12.335Z,3.70
2023-03-03T19:30:43.006Z,2.75
2023-03-03T19:33:24.897Z,2.80
2023-03-03T19:36:16.604Z,3.00
2023-03-03T19:39:08.907Z,2.72
2023-03-03T19:41:39.644Z,4.53
2023-03-03T19:44:42.002Z,2.83
2023-03-03T19:47:46.764Z,3.17
2023-03-03T19:50:32.940Z,3.25
2023-03-03T19:53:04.762Z,2.42
2023-03-03T19:55:57.848Z,2.75
2023-03-03T19:59:00.395Z,3.25
2023-03-03T20:01:56.100Z,3.20
2023-03-03T20:04:26.366Z,3.45
2023-03-03T20:07:00.802Z,4.65
2023-03-03T20:09:37.542Z,2.83
2023-03-03T20:12:08.121Z,3.80
2023-03-03T20:14:54.943Z,4.22
2023-03-03T20:17:46.032Z,3.75
2023-03-03T20:20:43.838Z,3.85
2023-03-03T20:23:20.448Z,5.18
2023-03-03T20:26:06.699Z,4.28
2023-03-03T20:28:46.153Z,3.78
2023-03-03T20:31:40.184Z,2.92
2023-03-03T20:34:38.992Z,2.50
2023-03-03T20:37:21.820Z,5.75
2023-03-03T20:40:14.292Z,5.25
2023-03-03T20:43:09.572Z,3.55
2023-03-03T20:45:40.100Z,3.67
2023-03-03T20:48:46.253Z,3.22
2023-03-03T20:51:44.477Z,4.40
2023-03-03T20:54:20.198Z,3.88
2023-03-03T20:57:17.703Z,3.53
2023-03-03T21:00:00.712Z,3.38
2023-03-03T21:02:38.588Z,5.15
2023-03-03T21:05:15.673Z,6.85
2023-03-03T21:07:52.661Z,4.65
2023-03-03T21:10:24.982Z,4.35
2023-03-03T21:12:55.996Z,5.75
2023-03-03T21:15:35.362Z,5.28
2023-03-03T21:18:27.881Z,4.03
2023-03-03T21:20:59.537Z,3.17
2023-03-03T21:23:27.185Z,2.50
2023-03-03T21:25:57.418Z,2.55
2023-03-03T21:28:33.998Z,2.50
2023-03-03T21:31:16.376Z,2.15
2023-03-03T21:34:00.918Z,2.55
2023-03-03T21:36:33.244Z,2.70
2023-03-03T21:39:02.232Z,2.53
2023-03-03T21:41:53.023Z,3.05
2023-03-03T21:44:38.362Z,2.97
2023-03-03T21:47:09.168Z,3.60
2023-03-03T21:49:40.252Z,2.72
2023-03-03T21:52:09.075Z,2.83
2023-03-03T21:54:38.789Z,3.20
2023-03-03T21:57:07.233Z,2.70
2023-03-03T22:02:06.061Z,2.72
2023-03-03T22:04:34.308Z,2.40
2023-03-03T22:07:03.853Z,2.53
2023-03-03T22:09:31.552Z,2.17
2023-03-03T22:12:18.054Z,3.20
2023-03-03T22:14:49.441Z,2.25
2023-03-03T22:17:17.953Z,2.67
2023-03-03T22:19:45.964Z,2.53
2023-03-03T22:22:14.090Z,2.47
2023-03-03T22:24:48.538Z,3.22
2023-03-03T22:27:16.891Z,2.45
2023-03-03T22:29:48.591Z,1.95
2023-03-03T22:32:21.645Z,2.20
2023-03-03T22:34:51.485Z,3.72
2023-03-03T22:37:28.383Z,2.30
2023-03-03T22:39:57.533Z,2.20
2023-03-03T22:42:25.801Z,1.88
2023-03-03T22:44:53.412Z,3.33
2023-03-03T22:47:26.249Z,2.28
2023-03-03T22:49:54.427Z,2.38
2023-03-03T22:52:21.955Z,3.10
2023-03-03T22:54:49.612Z,2.47
2023-03-03T22:57:19.271Z,2.35
2023-03-03T22:59:49.091Z,2.67
2023-03-03T23:02:17.332Z,2.05
2023-03-03T23:04:44.831Z,2.60
2023-03-03T23:07:12.381Z,1.73
2023-03-03T23:09:39.820Z,1.83
2023-03-03T23:12:07.475Z,1.70
2023-03-03T23:14:34.984Z,2.22
2023-03-03T23:17:02.430Z,2.15
2023-03-03T23:19:29.869Z,3.00
2023-03-03T23:21:57.335Z,2.50
2023-03-03T23:24:24.886Z,1.50
2023-03-03T23:26:56.762Z,1.60
2023-03-03T23:29:24.841Z,2.00
2023-03-03T23:31:52.153Z,1.83
2023-03-03T23:34:19.991Z,2.28
2023-03-03T23:36:54.438Z,2.40
2023-03-03T23:39:22.299Z,1.63
2023-03-03T23:41:59.846Z,2.33
2023-03-03T23:44:33.557Z,2.28
2023-03-03T23:47:04.541Z,1.60
2023-03-03T23:49:36.751Z,2.28
2023-03-03T23:52:09.062Z,1.73
2023-03-03T23:54:36.641Z,1.40
2023-03-03T23:57:08.540Z,1.35
2023-03-03T23:59:38.041Z,1.80
